Terminal Aerodrome Forecast
Issued by NWS Sioux Falls, SD

Home | Current Version | Previous Version | Text Only | Print | Product List | Glossary On
Versions: 1 2 3 4 5 6 7 8 9 10 11 12 13 14
657
FTUS43 KFSD 310522
TAFFSD
TAF
KFSD 310522Z 3106/0106 VRB03KT P6SM SCT250
     FM311400 08005KT P6SM SCT250=

USA.gov is the U.S. government's official web portal to all federal, state and local government web resources and services.